sensor_id;sensor_type;location;lat;lon;timestamp;pressure;altitude;pressure_sealevel;temperature;humidity
30856;BME280;17570;0.000;0.000;2023-06-10T00:01:39;96535.28;;;25.43;37.73
30856;BME280;17570;0.000;0.000;2023-06-10T00:04:08;96538.31;;;25.47;37.68
30856;BME280;17570;0.000;0.000;2023-06-10T00:06:35;96538.52;;;25.45;37.35
30856;BME280;17570;0.000;0.000;2023-06-10T00:09:03;96532.39;;;25.45;37.47
30856;BME280;17570;0.000;0.000;2023-06-10T00:11:37;96545.78;;;25.38;37.48
30856;BME280;17570;0.000;0.000;2023-06-10T00:14:05;96540.34;;;25.33;37.56
30856;BME280;17570;0.000;0.000;2023-06-10T00:16:33;96548.08;;;25.35;37.61
30856;BME280;17570;0.000;0.000;2023-06-10T00:19:03;96544.84;;;25.33;37.77
30856;BME280;17570;0.000;0.000;2023-06-10T00:21:31;96533.61;;;25.31;37.74
30856;BME280;17570;0.000;0.000;2023-06-10T00:24:00;96537.31;;;25.30;37.90
30856;BME280;17570;0.000;0.000;2023-06-10T00:26:29;96547.94;;;25.30;37.76
30856;BME280;17570;0.000;0.000;2023-06-10T00:28:57;96539.61;;;25.26;37.72
30856;BME280;17570;0.000;0.000;2023-06-10T00:31:25;96539.84;;;25.25;38.00
30856;BME280;17570;0.000;0.000;2023-06-10T00:33:55;96535.91;;;25.27;38.05
30856;BME280;17570;0.000;0.000;2023-06-10T00:36:23;96543.88;;;25.27;37.98
30856;BME280;17570;0.000;0.000;2023-06-10T00:38:51;96543.30;;;25.25;37.91
30856;BME280;17570;0.000;0.000;2023-06-10T00:41:18;96540.08;;;25.23;38.14
30856;BME280;17570;0.000;0.000;2023-06-10T00:43:46;96541.33;;;25.21;38.18
30856;BME280;17570;0.000;0.000;2023-06-10T00:46:14;96542.36;;;25.19;38.40
30856;BME280;17570;0.000;0.000;2023-06-10T00:48:42;96543.17;;;25.20;38.48
30856;BME280;17570;0.000;0.000;2023-06-10T00:51:11;96541.55;;;25.19;38.32
30856;BME280;17570;0.000;0.000;2023-06-10T00:53:41;96550.77;;;25.16;38.36
30856;BME280;17570;0.000;0.000;2023-06-10T00:56:09;96555.52;;;25.14;38.37
30856;BME280;17570;0.000;0.000;2023-06-10T00:58:37;96553.93;;;25.07;38.34
30856;BME280;17570;0.000;0.000;2023-06-10T01:01:05;96547.61;;;25.08;38.37
30856;BME280;17570;0.000;0.000;2023-06-10T01:03:32;96552.31;;;25.06;38.55
30856;BME280;17570;0.000;0.000;2023-06-10T01:08:56;96555.94;;;24.93;38.56
30856;BME280;17570;0.000;0.000;2023-06-10T01:11:03;96557.41;;;24.89;38.52
30856;BME280;17570;0.000;0.000;2023-06-10T01:13:33;96551.52;;;24.87;38.62
30856;BME280;17570;0.000;0.000;2023-06-10T01:16:02;96552.56;;;24.86;38.81
30856;BME280;17570;0.000;0.000;2023-06-10T01:18:32;96548.27;;;24.85;38.83
30856;BME280;17570;0.000;0.000;2023-06-10T01:21:00;96550.11;;;24.84;38.85
30856;BME280;17570;0.000;0.000;2023-06-10T01:23:27;96551.38;;;24.82;38.67
30856;BME280;17570;0.000;0.000;2023-06-10T01:26:04;96546.88;;;24.82;38.83
30856;BME280;17570;0.000;0.000;2023-06-10T01:28:29;96549.16;;;24.79;38.70
30856;BME280;17570;0.000;0.000;2023-06-10T01:31:02;96549.83;;;24.74;38.83
30856;BME280;17570;0.000;0.000;2023-06-10T01:33:29;96544.52;;;24.74;38.80
30856;BME280;17570;0.000;0.000;2023-06-10T01:35:58;96548.64;;;24.70;38.88
30856;BME280;17570;0.000;0.000;2023-06-10T01:38:26;96545.41;;;24.68;38.93
30856;BME280;17570;0.000;0.000;2023-06-10T01:40:54;96548.27;;;24.66;39.18
30856;BME280;17570;0.000;0.000;2023-06-10T01:43:23;96547.45;;;24.66;39.00
30856;BME280;17570;0.000;0.000;2023-06-10T01:45:51;96554.41;;;24.67;39.08
30856;BME280;17570;0.000;0.000;2023-06-10T01:48:18;96557.06;;;24.67;39.15
30856;BME280;17570;0.000;0.000;2023-06-10T01:50:46;96553.80;;;24.65;39.16
30856;BME280;17570;0.000;0.000;2023-06-10T01:53:13;96552.19;;;24.64;38.92
30856;BME280;17570;0.000;0.000;2023-06-10T01:55:41;96550.11;;;24.66;39.08
30856;BME280;17570;0.000;0.000;2023-06-10T01:58:08;96552.42;;;24.62;39.33
30856;BME280;17570;0.000;0.000;2023-06-10T02:00:36;96553.23;;;24.63;39.25
30856;BME280;17570;0.000;0.000;2023-06-10T02:03:03;96548.13;;;24.61;39.17
30856;BME280;17570;0.000;0.000;2023-06-10T02:05:31;96553.66;;;24.60;39.40
30856;BME280;17570;0.000;0.000;2023-06-10T02:07:58;96552.85;;;24.59;39.14
30856;BME280;17570;0.000;0.000;2023-06-10T02:10:27;96558.16;;;24.59;38.97
30856;BME280;17570;0.000;0.000;2023-06-10T02:12:56;96561.85;;;24.58;39.06
30856;BME280;17570;0.000;0.000;2023-06-10T02:15:23;96561.63;;;24.60;39.09
30856;BME280;17570;0.000;0.000;2023-06-10T02:17:51;96564.94;;;24.55;39.24
30856;BME280;17570;0.000;0.000;2023-06-10T02:20:19;96565.97;;;24.54;39.24
30856;BME280;17570;0.000;0.000;2023-06-10T02:22:47;96573.70;;;24.56;39.26
30856;BME280;17570;0.000;0.000;2023-06-10T02:25:14;96568.39;;;24.56;39.03
30856;BME280;17570;0.000;0.000;2023-06-10T02:27:42;96567.59;;;24.55;39.06
30856;BME280;17570;0.000;0.000;2023-06-10T02:30:09;96571.48;;;24.53;38.99
30856;BME280;17570;0.000;0.000;2023-06-10T02:32:38;96563.37;;;24.48;39.03
30856;BME280;17570;0.000;0.000;2023-06-10T02:35:05;96562.13;;;24.50;39.06
30856;BME280;17570;0.000;0.000;2023-06-10T02:37:33;96564.20;;;24.48;39.35
30856;BME280;17570;0.000;0.000;2023-06-10T02:40:00;96562.56;;;24.47;39.40
30856;BME280;17570;0.000;0.000;2023-06-10T02:42:30;96555.64;;;24.46;39.35
30856;BME280;17570;0.000;0.000;2023-06-10T02:44:58;96562.21;;;24.43;39.35
30856;BME280;17570;0.000;0.000;2023-06-10T02:47:28;96563.67;;;24.39;39.37
30856;BME280;17570;0.000;0.000;2023-06-10T02:49:56;96559.18;;;24.40;39.37
30856;BME280;17570;0.000;0.000;2023-06-10T02:52:24;96557.56;;;24.39;39.51
30856;BME280;17570;0.000;0.000;2023-06-10T02:54:51;96562.41;;;24.42;39.53
30856;BME280;17570;0.000;0.000;2023-06-10T02:57:19;96572.44;;;24.40;39.52
30856;BME280;17570;0.000;0.000;2023-06-10T02:59:47;96572.44;;;24.40;39.60
30856;BME280;17570;0.000;0.000;2023-06-10T03:02:15;96572.64;;;24.38;39.48
30856;BME280;17570;0.000;0.000;2023-06-10T03:04:44;96570.61;;;24.34;39.35
30856;BME280;17570;0.000;0.000;2023-06-10T03:07:14;96567.61;;;24.30;39.54
30856;BME280;17570;0.000;0.000;2023-06-10T03:09:42;96576.80;;;24.28;39.60
30856;BME280;17570;0.000;0.000;2023-06-10T03:12:10;96573.56;;;24.26;39.84
30856;BME280;17570;0.000;0.000;2023-06-10T03:14:39;96568.27;;;24.26;39.83
30856;BME280;17570;0.000;0.000;2023-06-10T03:17:07;96571.92;;;24.25;39.79
30856;BME280;17570;0.000;0.000;2023-06-10T03:19:39;96565.00;;;24.24;40.20
30856;BME280;17570;0.000;0.000;2023-06-10T03:22:08;96569.50;;;24.23;40.31
30856;BME280;17570;0.000;0.000;2023-06-10T03:24:37;96567.80;;;24.29;40.28
30856;BME280;17570;0.000;0.000;2023-06-10T03:27:13;96568.84;;;24.28;40.40
30856;BME280;17570;0.000;0.000;2023-06-10T03:29:39;96578.80;;;24.32;40.54
30856;BME280;17570;0.000;0.000;2023-06-10T03:32:07;96567.38;;;24.32;40.67
30856;BME280;17570;0.000;0.000;2023-06-10T03:34:35;96578.37;;;24.35;40.70
30856;BME280;17570;0.000;0.000;2023-06-10T03:37:03;96573.67;;;24.37;40.50
30856;BME280;17570;0.000;0.000;2023-06-10T03:39:32;96579.59;;;24.39;40.60
30856;BME280;17570;0.000;0.000;2023-06-10T03:42:00;96578.33;;;24.42;40.77
30856;BME280;17570;0.000;0.000;2023-06-10T03:44:28;96572.83;;;24.43;40.53
30856;BME280;17570;0.000;0.000;2023-06-10T03:46:56;96579.09;;;24.49;40.42
30856;BME280;17570;0.000;0.000;2023-06-10T03:49:24;96570.52;;;24.47;40.35
30856;BME280;17570;0.000;0.000;2023-06-10T03:51:54;96576.78;;;24.53;40.48
30856;BME280;17570;0.000;0.000;2023-06-10T03:54:22;96574.13;;;24.53;40.38
30856;BME280;17570;0.000;0.000;2023-06-10T03:56:49;96570.47;;;24.54;40.24
30856;BME280;17570;0.000;0.000;2023-06-10T03:59:17;96568.39;;;24.56;40.27
30856;BME280;17570;0.000;0.000;2023-06-10T04:01:45;96572.81;;;24.62;40.31
30856;BME280;17570;0.000;0.000;2023-06-10T04:04:15;96569.96;;;24.63;40.47
30856;BME280;17570;0.000;0.000;2023-06-10T04:06:43;96576.66;;;24.66;40.47
30856;BME280;17570;0.000;0.000;2023-06-10T04:09:11;96574.81;;;24.66;40.38
30856;BME280;17570;0.000;0.000;2023-06-10T04:11:39;96578.65;;;24.71;40.57
30856;BME280;17570;0.000;0.000;2023-06-10T04:14:07;96583.95;;;24.71;40.48
30856;BME280;17570;0.000;0.000;2023-06-10T04:16:35;96577.98;;;24.75;40.48
30856;BME280;17570;0.000;0.000;2023-06-10T04:19:02;96588.41;;;24.77;40.27
30856;BME280;17570;0.000;0.000;2023-06-10T04:21:30;96578.59;;;24.77;40.32
30856;BME280;17570;0.000;0.000;2023-06-10T04:23:59;96581.63;;;24.81;40.42
30856;BME280;17570;0.000;0.000;2023-06-10T04:26:27;96576.52;;;24.79;40.39
30856;BME280;17570;0.000;0.000;2023-06-10T04:28:54;96584.28;;;24.81;40.53
30856;BME280;17570;0.000;0.000;2023-06-10T04:31:23;96588.09;;;24.85;40.57
30856;BME280;17570;0.000;0.000;2023-06-10T04:33:51;96590.74;;;24.85;40.95
30856;BME280;17570;0.000;0.000;2023-06-10T04:36:19;96592.16;;;24.87;40.95
30856;BME280;17570;0.000;0.000;2023-06-10T04:38:47;96591.73;;;24.90;41.13
30856;BME280;17570;0.000;0.000;2023-06-10T04:41:14;96596.38;;;24.95;41.11
30856;BME280;17570;0.000;0.000;2023-06-10T04:43:42;96596.72;;;24.99;41.05
30856;BME280;17570;0.000;0.000;2023-06-10T04:46:10;96598.94;;;25.02;41.09
30856;BME280;17570;0.000;0.000;2023-06-10T04:48:37;96592.39;;;25.04;41.14
30856;BME280;17570;0.000;0.000;2023-06-10T04:51:05;96597.88;;;25.09;41.12
30856;BME280;17570;0.000;0.000;2023-06-10T04:53:32;96602.28;;;25.15;41.32
30856;BME280;17570;0.000;0.000;2023-06-10T04:56:00;96594.28;;;25.34;42.38
30856;BME280;17570;0.000;0.000;2023-06-10T04:58:28;96593.17;;;25.41;42.50
30856;BME280;17570;0.000;0.000;2023-06-10T05:00:55;96600.91;;;25.43;42.42
30856;BME280;17570;0.000;0.000;2023-06-10T05:03:23;96602.16;;;25.40;42.15
30856;BME280;17570;0.000;0.000;2023-06-10T05:05:50;96599.88;;;25.44;42.11
30856;BME280;17570;0.000;0.000;2023-06-10T05:08:18;96602.53;;;25.44;42.22
30856;BME280;17570;0.000;0.000;2023-06-10T05:10:45;96596.17;;;25.45;42.25
30856;BME280;17570;0.000;0.000;2023-06-10T05:13:13;96606.80;;;25.45;42.58
30856;BME280;17570;0.000;0.000;2023-06-10T05:15:40;96599.43;;;25.47;42.57
30856;BME280;17570;0.000;0.000;2023-06-10T05:18:10;96601.05;;;25.48;42.58
30856;BME280;17570;0.000;0.000;2023-06-10T05:20:39;96604.14;;;25.45;42.92
30856;BME280;17570;0.000;0.000;2023-06-10T05:23:06;96603.70;;;25.48;43.10
30856;BME280;17570;0.000;0.000;2023-06-10T05:25:34;96608.24;;;25.59;42.96
30856;BME280;17570;0.000;0.000;2023-06-10T05:28:01;96606.50;;;25.83;43.62
30856;BME280;17570;0.000;0.000;2023-06-10T05:30:28;96599.00;;;25.92;43.14
30856;BME280;17570;0.000;0.000;2023-06-10T05:32:56;96604.92;;;25.94;42.74
30856;BME280;17570;0.000;0.000;2023-06-10T05:35:24;96598.56;;;25.95;42.78
30856;BME280;17570;0.000;0.000;2023-06-10T05:37:52;96599.61;;;25.94;42.20
30856;BME280;17570;0.000;0.000;2023-06-10T05:40:21;96595.54;;;25.91;42.04
30856;BME280;17570;0.000;0.000;2023-06-10T05:42:48;96606.41;;;25.90;42.36
30856;BME280;17570;0.000;0.000;2023-06-10T05:45:16;96599.24;;;25.90;42.01
30856;BME280;17570;0.000;0.000;2023-06-10T05:47:43;96603.75;;;25.90;42.55
30856;BME280;17570;0.000;0.000;2023-06-10T05:50:12;96597.62;;;25.89;42.70
30856;BME280;17570;0.000;0.000;2023-06-10T05:52:41;96593.36;;;25.88;42.86
30856;BME280;17570;0.000;0.000;2023-06-10T05:55:09;96598.88;;;25.87;43.20
30856;BME280;17570;0.000;0.000;2023-06-10T05:57:37;96595.78;;;25.90;43.28
30856;BME280;17570;0.000;0.000;2023-06-10T06:00:05;96597.16;;;25.92;43.49
30856;BME280;17570;0.000;0.000;2023-06-10T06:02:34;96597.52;;;25.96;43.75
30856;BME280;17570;0.000;0.000;2023-06-10T06:05:01;96594.98;;;26.01;43.68
30856;BME280;17570;0.000;0.000;2023-06-10T06:07:29;96594.29;;;26.06;43.26
30856;BME280;17570;0.000;0.000;2023-06-10T06:10:04;96593.39;;;26.12;42.99
30856;BME280;17570;0.000;0.000;2023-06-10T06:12:28;96593.39;;;26.12;43.04
30856;BME280;17570;0.000;0.000;2023-06-10T06:15:01;96592.59;;;26.11;42.94
30856;BME280;17570;0.000;0.000;2023-06-10T06:17:25;96604.97;;;26.17;42.93
30856;BME280;17570;0.000;0.000;2023-06-10T06:19:53;96595.37;;;26.16;42.56
30856;BME280;17570;0.000;0.000;2023-06-10T06:22:20;96596.17;;;26.17;42.51
30856;BME280;17570;0.000;0.000;2023-06-10T06:24:50;96587.15;;;26.18;42.62
30856;BME280;17570;0.000;0.000;2023-06-10T06:27:20;96589.56;;;26.19;42.81
30856;BME280;17570;0.000;0.000;2023-06-10T06:29:47;96582.98;;;26.22;42.60
30856;BME280;17570;0.000;0.000;2023-06-10T06:32:18;96579.84;;;26.25;42.73
30856;BME280;17570;0.000;0.000;2023-06-10T06:34:48;96580.69;;;26.26;43.02
30856;BME280;17570;0.000;0.000;2023-06-10T06:37:18;96570.04;;;26.26;43.18
30856;BME280;17570;0.000;0.000;2023-06-10T06:39:46;96571.30;;;26.23;43.34
30856;BME280;17570;0.000;0.000;2023-06-10T06:42:15;96563.31;;;26.23;43.15
30856;BME280;17570;0.000;0.000;2023-06-10T06:44:59;96559.25;;;26.20;43.64
30856;BME280;17570;0.000;0.000;2023-06-10T06:47:27;96563.53;;;26.10;43.84
30856;BME280;17570;0.000;0.000;2023-06-10T06:49:54;96565.41;;;26.21;43.88
30856;BME280;17570;0.000;0.000;2023-06-10T06:52:22;96568.88;;;26.22;44.19
30856;BME280;17570;0.000;0.000;2023-06-10T06:54:50;96555.69;;;26.27;44.39
30856;BME280;17570;0.000;0.000;2023-06-10T06:57:20;96561.23;;;26.37;44.61
30856;BME280;17570;0.000;0.000;2023-06-10T06:59:49;96558.27;;;26.45;44.63
30856;BME280;17570;0.000;0.000;2023-06-10T07:02:17;96550.70;;;26.42;44.62
30856;BME280;17570;0.000;0.000;2023-06-10T07:04:52;96555.02;;;26.55;44.09
30856;BME280;17570;0.000;0.000;2023-06-10T07:07:21;96553.27;;;26.60;44.58
30856;BME280;17570;0.000;0.000;2023-06-10T07:09:49;96545.38;;;26.65;44.46
30856;BME280;17570;0.000;0.000;2023-06-10T07:12:18;96550.92;;;26.76;43.86
30856;BME280;17570;0.000;0.000;2023-06-10T07:14:47;96546.63;;;26.86;43.25
30856;BME280;17570;0.000;0.000;2023-06-10T07:17:20;96543.92;;;26.98;43.64
30856;BME280;17570;0.000;0.000;2023-06-10T07:19:45;96539.63;;;27.09;43.25
30856;BME280;17570;0.000;0.000;2023-06-10T07:22:14;96546.44;;;27.16;43.28
30856;BME280;17570;0.000;0.000;2023-06-10T07:24:41;96545.02;;;27.26;42.98
30856;BME280;17570;0.000;0.000;2023-06-10T07:27:11;96548.36;;;27.33;42.79
30856;BME280;17570;0.000;0.000;2023-06-10T07:29:38;96538.59;;;27.38;42.52
30856;BME280;17570;0.000;0.000;2023-06-10T07:32:08;96536.83;;;27.44;42.61
30856;BME280;17570;0.000;0.000;2023-06-10T07:34:36;96543.30;;;27.48;43.10
30856;BME280;17570;0.000;0.000;2023-06-10T07:37:07;96535.95;;;27.55;42.78
30856;BME280;17570;0.000;0.000;2023-06-10T07:39:38;96541.95;;;27.62;42.76
30856;BME280;17570;0.000;0.000;2023-06-10T07:42:07;96538.67;;;27.72;41.96
30856;BME280;17570;0.000;0.000;2023-06-10T07:44:37;96542.56;;;27.81;41.60
30856;BME280;17570;0.000;0.000;2023-06-10T07:47:07;96534.72;;;27.91;41.50
30856;BME280;17570;0.000;0.000;2023-06-10T07:49:36;96535.94;;;28.01;41.20
30856;BME280;17570;0.000;0.000;2023-06-10T07:52:04;96530.75;;;28.11;40.31
30856;BME280;17570;0.000;0.000;2023-06-10T07:54:31;96530.09;;;28.20;40.47
30856;BME280;17570;0.000;0.000;2023-06-10T07:56:59;96531.06;;;28.31;39.86
30856;BME280;17570;0.000;0.000;2023-06-10T07:59:26;96526.95;;;28.40;39.12
30856;BME280;17570;0.000;0.000;2023-06-10T08:01:54;96531.05;;;28.48;38.38
30856;BME280;17570;0.000;0.000;2023-06-10T08:04:21;96527.95;;;28.56;38.69
30856;BME280;17570;0.000;0.000;2023-06-10T08:06:49;96530.21;;;28.64;38.08
30856;BME280;17570;0.000;0.000;2023-06-10T08:09:16;96521.20;;;28.70;39.07
30856;BME280;17570;0.000;0.000;2023-06-10T08:11:46;96519.65;;;28.75;39.09
30856;BME280;17570;0.000;0.000;2023-06-10T08:14:14;96521.09;;;28.82;39.36
30856;BME280;17570;0.000;0.000;2023-06-10T08:16:43;96521.15;;;28.87;38.02
30856;BME280;17570;0.000;0.000;2023-06-10T08:19:11;96515.86;;;28.92;37.49
30856;BME280;17570;0.000;0.000;2023-06-10T08:21:38;96522.91;;;28.98;37.98
30856;BME280;17570;0.000;0.000;2023-06-10T08:24:06;96517.61;;;29.04;37.20
30856;BME280;17570;0.000;0.000;2023-06-10T08:26:34;96522.20;;;29.08;36.82
30856;BME280;17570;0.000;0.000;2023-06-10T08:29:02;96516.68;;;29.15;37.29
30856;BME280;17570;0.000;0.000;2023-06-10T08:31:29;96518.88;;;29.23;38.34
30856;BME280;17570;0.000;0.000;2023-06-10T08:33:59;96516.58;;;29.32;37.80
30856;BME280;17570;0.000;0.000;2023-06-10T08:36:28;96522.81;;;29.42;36.59
30856;BME280;17570;0.000;0.000;2023-06-10T08:38:56;96517.55;;;29.47;36.62
30856;BME280;17570;0.000;0.000;2023-06-10T08:41:23;96519.77;;;29.56;36.13
30856;BME280;17570;0.000;0.000;2023-06-10T08:46:38;96510.53;;;29.68;35.55
30856;BME280;17570;0.000;0.000;2023-06-10T08:49:08;96509.42;;;29.64;34.65
30856;BME280;17570;0.000;0.000;2023-06-10T08:51:36;96510.07;;;29.77;34.12
30856;BME280;17570;0.000;0.000;2023-06-10T08:54:05;96514.70;;;29.86;33.67
30856;BME280;17570;0.000;0.000;2023-06-10T08:56:33;96501.65;;;29.95;33.31
30856;BME280;17570;0.000;0.000;2023-06-10T08:59:03;96496.87;;;30.02;33.78
30856;BME280;17570;0.000;0.000;2023-06-10T09:01:31;96494.52;;;30.11;32.92
30856;BME280;17570;0.000;0.000;2023-06-10T09:03:59;96492.73;;;30.21;32.42
30856;BME280;17570;0.000;0.000;2023-06-10T09:06:26;96492.02;;;30.31;31.83
30856;BME280;17570;0.000;0.000;2023-06-10T09:08:54;96488.59;;;30.41;32.29
30856;BME280;17570;0.000;0.000;2023-06-10T09:11:22;96480.84;;;30.49;31.83
30856;BME280;17570;0.000;0.000;2023-06-10T09:13:51;96486.77;;;30.57;32.14
30856;BME280;17570;0.000;0.000;2023-06-10T09:16:22;96477.69;;;30.63;31.69
30856;BME280;17570;0.000;0.000;2023-06-10T09:18:51;96481.45;;;30.67;30.73
30856;BME280;17570;0.000;0.000;2023-06-10T09:21:22;96478.02;;;30.71;31.43
30856;BME280;17570;0.000;0.000;2023-06-10T09:23:49;96476.16;;;30.77;30.58
30856;BME280;17570;0.000;0.000;2023-06-10T09:26:17;96474.33;;;30.83;29.69
30856;BME280;17570;0.000;0.000;2023-06-10T09:29:02;96472.17;;;30.85;30.01
30856;BME280;17570;0.000;0.000;2023-06-10T09:31:14;96465.74;;;30.86;29.17
30856;BME280;17570;0.000;0.000;2023-06-10T09:33:44;96476.75;;;30.89;29.40
30856;BME280;17570;0.000;0.000;2023-06-10T09:36:12;96475.16;;;30.93;28.98
30856;BME280;17570;0.000;0.000;2023-06-10T09:38:41;96467.92;;;30.99;27.96
30856;BME280;17570;0.000;0.000;2023-06-10T09:41:08;96472.78;;;31.07;28.03
30856;BME280;17570;0.000;0.000;2023-06-10T09:43:39;96465.83;;;31.16;26.96
30856;BME280;17570;0.000;0.000;2023-06-10T09:46:13;96474.97;;;31.25;27.34
30856;BME280;17570;0.000;0.000;2023-06-10T09:48:40;96465.35;;;31.30;27.31
30856;BME280;17570;0.000;0.000;2023-06-10T09:51:08;96460.52;;;31.37;27.96
30856;BME280;17570;0.000;0.000;2023-06-10T09:53:34;96458.63;;;31.42;28.59
30856;BME280;17570;0.000;0.000;2023-06-10T09:56:01;96454.63;;;31.50;28.17
30856;BME280;17570;0.000;0.000;2023-06-10T09:58:38;96448.17;;;31.56;28.29
30856;BME280;17570;0.000;0.000;2023-06-10T10:01:11;96455.42;;;31.66;29.15
30856;BME280;17570;0.000;0.000;2023-06-10T10:03:50;96457.58;;;31.64;29.46
30856;BME280;17570;0.000;0.000;2023-06-10T10:06:18;96457.05;;;31.72;29.29
30856;BME280;17570;0.000;0.000;2023-06-10T10:08:46;96450.32;;;31.74;29.56
30856;BME280;17570;0.000;0.000;2023-06-10T10:11:15;96449.53;;;31.84;28.39
30856;BME280;17570;0.000;0.000;2023-06-10T10:13:44;96446.03;;;31.94;29.28
30856;BME280;17570;0.000;0.000;2023-06-10T10:16:17;96451.94;;;32.01;28.96
30856;BME280;17570;0.000;0.000;2023-06-10T10:18:45;96443.34;;;32.09;29.17
30856;BME280;17570;0.000;0.000;2023-06-10T10:21:13;96441.70;;;32.18;29.67
30856;BME280;17570;0.000;0.000;2023-06-10T10:23:44;96444.88;;;32.31;29.90
30856;BME280;17570;0.000;0.000;2023-06-10T10:26:09;96438.95;;;32.44;30.56
30856;BME280;17570;0.000;0.000;2023-06-10T10:28:45;96442.39;;;32.55;30.51
30856;BME280;17570;0.000;0.000;2023-06-10T10:31:12;96435.91;;;32.66;30.48
30856;BME280;17570;0.000;0.000;2023-06-10T10:33:53;96436.66;;;32.76;30.52
30856;BME280;17570;0.000;0.000;2023-06-10T10:36:19;96427.19;;;32.89;30.52
30856;BME280;17570;0.000;0.000;2023-06-10T10:38:47;96432.02;;;32.97;30.68
30856;BME280;17570;0.000;0.000;2023-06-10T10:41:16;96430.02;;;33.13;30.22
30856;BME280;17570;0.000;0.000;2023-06-10T10:43:44;96431.80;;;33.28;30.16
30856;BME280;17570;0.000;0.000;2023-06-10T10:46:14;96423.38;;;33.40;29.68
30856;BME280;17570;0.000;0.000;2023-06-10T10:48:42;96424.93;;;33.51;29.87
30856;BME280;17570;0.000;0.000;2023-06-10T10:51:09;96418.60;;;33.66;30.19
30856;BME280;17570;0.000;0.000;2023-06-10T17:13:56;96338.66;;;29.19;40.02
30856;BME280;17570;0.000;0.000;2023-06-10T17:16:23;96346.06;;;30.34;37.65
30856;BME280;17570;0.000;0.000;2023-06-10T17:18:51;96346.75;;;31.63;34.88
30856;BME280;17570;0.000;0.000;2023-06-10T17:21:18;96349.25;;;32.30;33.70
30856;BME280;17570;0.000;0.000;2023-06-10T17:23:46;96350.77;;;32.56;33.23
30856;BME280;17570;0.000;0.000;2023-06-10T17:26:13;96355.31;;;32.61;33.45
30856;BME280;17570;0.000;0.000;2023-06-10T17:28:41;96359.59;;;32.62;33.52
30856;BME280;17570;0.000;0.000;2023-06-10T17:31:08;96352.63;;;32.61;33.23
30856;BME280;17570;0.000;0.000;2023-06-10T17:33:37;96366.61;;;32.58;33.16
30856;BME280;17570;0.000;0.000;2023-06-10T17:36:04;96366.92;;;32.51;33.21
30856;BME280;17570;0.000;0.000;2023-06-10T17:38:33;96373.14;;;32.31;33.14
30856;BME280;17570;0.000;0.000;2023-06-10T17:41:04;96375.61;;;32.17;33.11
30856;BME280;17570;0.000;0.000;2023-06-10T17:43:34;96384.77;;;32.11;33.61
30856;BME280;17570;0.000;0.000;2023-06-10T17:46:05;96379.98;;;31.98;33.81
30856;BME280;17570;0.000;0.000;2023-06-10T17:48:35;96377.59;;;31.91;34.06
30856;BME280;17570;0.000;0.000;2023-06-10T17:51:04;96381.07;;;31.82;34.09
30856;BME280;17570;0.000;0.000;2023-06-10T17:53:37;96386.45;;;31.77;34.41
30856;BME280;17570;0.000;0.000;2023-06-10T17:56:05;96383.78;;;31.71;34.66
30856;BME280;17570;0.000;0.000;2023-06-10T17:58:37;96387.28;;;31.67;35.20
30856;BME280;17570;0.000;0.000;2023-06-10T18:01:06;96388.09;;;31.62;34.87
30856;BME280;17570;0.000;0.000;2023-06-10T18:03:34;96385.94;;;31.59;34.56
30856;BME280;17570;0.000;0.000;2023-06-10T18:06:05;96396.13;;;31.47;34.54
30856;BME280;17570;0.000;0.000;2023-06-10T18:08:32;96392.93;;;31.40;34.17
30856;BME280;17570;0.000;0.000;2023-06-10T18:11:01;96393.73;;;31.35;34.26
30856;BME280;17570;0.000;0.000;2023-06-10T18:13:32;96389.70;;;31.28;34.69
30856;BME280;17570;0.000;0.000;2023-06-10T18:16:00;96393.95;;;31.13;34.90
30856;BME280;17570;0.000;0.000;2023-06-10T18:18:31;96396.63;;;30.98;35.36
30856;BME280;17570;0.000;0.000;2023-06-10T18:20:58;96396.34;;;30.89;35.47
30856;BME280;17570;0.000;0.000;2023-06-10T18:23:26;96393.64;;;30.79;35.13
30856;BME280;17570;0.000;0.000;2023-06-10T18:25:53;96395.47;;;30.68;35.74
30856;BME280;17570;0.000;0.000;2023-06-10T18:28:21;96394.63;;;30.63;35.29
30856;BME280;17570;0.000;0.000;2023-06-10T18:30:49;96402.36;;;30.54;36.44
30856;BME280;17570;0.000;0.000;2023-06-10T18:33:18;96400.44;;;30.39;35.44
30856;BME280;17570;0.000;0.000;2023-06-10T18:35:46;96403.64;;;30.31;35.50
30856;BME280;17570;0.000;0.000;2023-06-10T18:38:13;96409.73;;;30.21;35.70
30856;BME280;17570;0.000;0.000;2023-06-10T18:40:41;96415.92;;;30.22;35.82
30856;BME280;17570;0.000;0.000;2023-06-10T18:43:08;96412.95;;;30.18;36.04
30856;BME280;17570;0.000;0.000;2023-06-10T18:45:37;96422.80;;;30.13;36.20
30856;BME280;17570;0.000;0.000;2023-06-10T18:48:04;96422.23;;;30.11;36.27
30856;BME280;17570;0.000;0.000;2023-06-10T18:50:32;96421.94;;;30.07;36.69
30856;BME280;17570;0.000;0.000;2023-06-10T18:52:59;96416.56;;;30.02;36.37
30856;BME280;17570;0.000;0.000;2023-06-10T18:55:27;96424.86;;;30.01;36.16
30856;BME280;17570;0.000;0.000;2023-06-10T18:57:56;96420.81;;;29.98;36.17
30856;BME280;17570;0.000;0.000;2023-06-10T19:00:24;96420.25;;;29.91;36.11
30856;BME280;17570;0.000;0.000;2023-06-10T19:02:51;96421.03;;;29.86;36.25
30856;BME280;17570;0.000;0.000;2023-06-10T19:05:19;96421.23;;;29.80;36.07
30856;BME280;17570;0.000;0.000;2023-06-10T19:07:48;96429.77;;;29.71;36.16
30856;BME280;17570;0.000;0.000;2023-06-10T19:10:17;96430.73;;;29.60;36.35
30856;BME280;17570;0.000;0.000;2023-06-10T19:12:45;96430.47;;;29.57;36.39
30856;BME280;17570;0.000;0.000;2023-06-10T19:15:13;96434.11;;;29.51;36.27
30856;BME280;17570;0.000;0.000;2023-06-10T19:17:40;96434.37;;;29.49;36.41
30856;BME280;17570;0.000;0.000;2023-06-10T19:20:08;96431.12;;;29.47;36.33
30856;BME280;17570;0.000;0.000;2023-06-10T19:22:36;96430.55;;;29.40;36.68
30856;BME280;17570;0.000;0.000;2023-06-10T19:25:05;96430.52;;;29.35;36.62
30856;BME280;17570;0.000;0.000;2023-06-10T19:27:33;96434.53;;;29.37;36.49
30856;BME280;17570;0.000;0.000;2023-06-10T19:30:01;96435.02;;;29.29;36.53
30856;BME280;17570;0.000;0.000;2023-06-10T19:32:30;96433.37;;;29.28;36.58
30856;BME280;17570;0.000;0.000;2023-06-10T19:34:58;96434.71;;;29.26;36.57
30856;BME280;17570;0.000;0.000;2023-06-10T19:37:26;96431.23;;;29.25;36.61
30856;BME280;17570;0.000;0.000;2023-06-10T19:39:53;96436.01;;;29.23;36.76
30856;BME280;17570;0.000;0.000;2023-06-10T19:42:21;96434.90;;;29.19;36.95